METAR stanice u blizini

 

LYBE - Beograd / Surčin, Srbija
Ažurirano: 21/10/2019 18:00
Vedro
Vedro
 Pravac vetra SI
Vetar: SI 6 km/h
Temperatura: 22°C
Tačka rose: 10°C
Vlažnost: 47%
Pritisak: 1021 hPa
Pregled: Vedro
Vidljivost: greater than 10 km
2019/10/21 16:00 LYBE 211600Z 04003KT CAVOK 22/10 Q1021 NOSIG
LYBT - Beograd / Batajnica, Srbija
Ažurirano: 21/10/2019 18:00
Vedro
Vedro
 Pravac vetra SSI
Vetar: SSI 6 km/h
Temperatura: 21°C
Tačka rose: 12°C
Vlažnost: 57%
Pritisak: 1021 hPa
Pregled: Vedro
Vidljivost: greater than 10 km
2019/10/21 16:00 LYBT 211600Z 03003KT CAVOK 21/12 Q1021 NOSIG
LYVR - Vršac, Srbija
Ažurirano: 21/10/2019 18:00
Vedro
Vedro
 Pravac vetra calm
Vetar: Tišina
Temperatura: 21°C
Tačka rose: 7°C
Vlažnost: 40%
Pritisak: 1021 hPa
Pregled: Vedro
Vidljivost: greater than 10 km
2019/10/21 16:00 LYVR 211600Z 00000KT CAVOK 21/07 Q1021 NOSIG
 
LYKV - Lađevci, Srbija
Ažurirano: 21/10/2019 18:00
Vedro
Vedro
 Pravac vetra varies
Vetar: varies 2 km/h
Temperatura: 22°C
Tačka rose: 7°C
Vlažnost: 38%
Pritisak: 1021 hPa
Pregled: Vedro
Vidljivost: greater than 10 km
2019/10/21 16:00 LYKV 211600Z VRB01KT CAVOK 22/07 Q1021 NOSIG
LYNI - Niš, Srbija
Ažurirano: 21/10/2019 18:00
Vedro
Vedro
 Pravac vetra S
Vetar: S 6 km/h
Temperatura: 23°C
Tačka rose: 9°C
Vlažnost: 41%
Pritisak: 1021 hPa
Pregled: Vedro
Vidljivost: greater than 10 km
2019/10/21 16:00 LYNI 211600Z 01003KT CAVOK 23/09 Q1021 NOSIG
BKPR - Priština, Srbija
Ažurirano: 21/10/2019 18:00
Vedro
Vedro
 Pravac vetra Z
Vetar: Z 9 km/h
Temperatura: 19°C
Tačka rose: 8°C
Vlažnost: 49%
Pritisak: 1023 hPa
Pregled: Vedro
Vidljivost: greater than 10 km
2019/10/21 16:00 BKPR 211600Z 27005KT CAVOK 19/08 Q1023 NOSIG
 
LHPP - Pecs / Pogany, Hungary
Ažurirano: 21/10/2019 17:45
Vedro
Vedro
 Pravac vetra Z
Vetar: Z 6 km/h
Temperatura: 23°C
Tačka rose: 14°C
Vlažnost: 57%
Pritisak: 1021 hPa
Pregled: Vedro
Vidljivost: greater than 10 km
2019/10/21 15:45 LHPP 211545Z 26003KT CAVOK 23/14 Q1021
LHUD - Szeged, Hungary
Ažurirano: 04/07/2019 01:45
NOT Current
Vedro
Vedro
 Pravac vetra S
Vetar: S 7 km/h
Temperatura: 18°C
Tačka rose: 13°C
Vlažnost: 73%
Pritisak: 1019 hPa
Pregled: Vedro
Vidljivost: greater than 10 km
2019/07/03 23:45 LHUD 032345Z 35004KT CAVOK 18/13 Q1019
LRTR - Timisoara, Romania
Ažurirano: 21/10/2019 18:00
Partly Cloudy
Partly Cloudy
 Pravac vetra JZ
Vetar: JZ 6 km/h
Temperatura: 22°C
Tačka rose: 10°C
Vlažnost: 47%
Pritisak: 1021 hPa
Oblaci: Partly Cloudy
Vidljivost: 7 km
2019/10/21 16:00 LRTR 211600Z 22003KT 7000 NSC 22/10 Q1021 NOSIG
 
LRCV - Craiova, Romania
Ažurirano: 21/10/2019 18:00
Vedro
Vedro
 Pravac vetra varies
Vetar: varies 4 km/h
Temperatura: 20°C
Tačka rose: 9°C
Vlažnost: 49%
Pritisak: 1022 hPa
Pregled: Vedro
Vidljivost: greater than 10 km
2019/10/21 16:00 LRCV 211600Z VRB02KT CAVOK 20/09 Q1022
LBSF - Sofia, Bulgaria
Ažurirano: 21/10/2019 18:00
Vedro
Vedro
 Pravac vetra SI
Vetar: SI 6 km/h
Temperatura: 20°C
Tačka rose: 8°C
Vlažnost: 46%
Pritisak: 1023 hPa
Pregled: Vedro
Vidljivost: greater than 10 km
2019/10/21 16:00 LBSF 211600Z 04003KT CAVOK 20/08 Q1023 NOSIG
LWSK - Skoplje, Makedonija
Ažurirano: 21/10/2019 18:00
Vedro
Vedro
 Pravac vetra calm
Vetar: Tišina
Temperatura: 21°C
Tačka rose: 9°C
Vlažnost: 46%
Pritisak: 1022 hPa
Pregled: Vedro
Vidljivost: greater than 10 km
2019/10/21 16:00 LWSK 211600Z 00000KT CAVOK 21/09 Q1022 NOSIG
 
LYPG - Podgorica, Crna Gora
Ažurirano: 21/10/2019 18:00
Vedro
Vedro
 Pravac vetra JJI
Vetar: JJI 6 km/h
Temperatura: 19°C
Tačka rose: 13°C
Vlažnost: 68%
Pritisak: 1021 hPa
Pregled: Vedro
Vidljivost: greater than 10 km
2019/10/21 16:00 LYPG 211600Z 16003KT CAVOK 19/13 Q1021 NOSIG
LQSA - Sarajevo, Bosna i Hercegovina
Ažurirano: 21/10/2019 18:00
Vedro
Vedro
 Pravac vetra JI
Vetar: JI 7 km/h
Temperatura: 17°C
Tačka rose: 6°C
Vlažnost: 49%
Pritisak: 1023 hPa
Pregled: Vedro
Vidljivost: greater than 10 km
2019/10/21 16:00 LQSA 211600Z 14004KT CAVOK 17/06 Q1023 NOSIG
LDOS - Osijek, Hrvatksa
Ažurirano: 21/10/2019 18:00
Vedro
Vedro
 Pravac vetra J
Vetar: J 7 km/h
Temperatura: 21°C
Tačka rose: 11°C
Vlažnost: 53%
Pritisak: 1021 hPa
Pregled: Vedro
Vidljivost: greater than 10 km
2019/10/21 16:00 LDOS 211600Z 17004KT CAVOK 21/11 Q1021